Knossos Palace — SYQO — position and weather

sailwx.info

Track history (hours):
 
Tides and Currents Weather Stations Pressure Air Temp Water Temp Dewpoint Dewpoint Depression Visibility Wind Speed Wind Dir Waves Ship Positions

Knossos Palace

Last reported at 2017-Jun-26 19:00 UTC. Time now 2017-Jun-26 19:04 UTC.
Position N 37°48' E 023°38'.

Length 214 m; beam 26.4 m; draft 7.3 m.

Type: Ship. MMSI: 237641000.

Date/timePositionNaut miles runAvg speedWind from/ knotsBaromVisibWave heightAir tempDewpointWater temp
2017-Jun-26 19:00N 37°48' E 023°38'816.9
2017-Jun-26 18:30N 37°56' E 023°37'1 1.9
2017-Jun-26 18:00N 37°57' E 023°38'0 0.0
2017-Jun-26 17:30N 37°57' E 023°38'0 0.0
2017-Jun-26 16:59N 37°57' E 023°38'0 0.0
2017-Jun-26 16:29N 37°57' E 023°38'0 0.0
2017-Jun-26 15:59N 37°57' E 023°38'0 0.0
2017-Jun-26 15:26N 37°57' E 023°38'0 0.0
2017-Jun-26 14:59N 37°57' E 023°38'0 0.0
2017-Jun-26 13:59N 37°57' E 023°38'0 0.0
2017-Jun-26 13:29N 37°57' E 023°38'0 0.0
2017-Jun-26 12:53N 37°57' E 023°38'0 0.0
2017-Jun-26 12:26N 37°57' E 023°38'0 0.0
2017-Jun-26 11:59N 37°57' E 023°38'0 0.0
2017-Jun-26 11:26N 37°57' E 023°38'0 0.0
2017-Jun-26 10:56N 37°57' E 023°38'0 0.0
2017-Jun-26 10:29N 37°57' E 023°38'0 0.0
2017-Jun-26 09:56N 37°57' E 023°38'0 0.0
2017-Jun-26 09:29N 37°57' E 023°38'0 0.0
2017-Jun-26 08:59N 37°57' E 023°38'0 0.0
2017-Jun-26 08:29N 37°57' E 023°38'0 0.0
2017-Jun-26 07:59N 37°57' E 023°38'0 0.0
2017-Jun-26 07:29N 37°57' E 023°38'0 0.0
2017-Jun-26 06:59N 37°57' E 023°38'0 0.0
2017-Jun-26 05:58N 37°57' E 023°38'0 0.0
2017-Jun-26 05:30N 37°57' E 023°38'0 0.0
2017-Jun-26 05:00N 37°57' E 023°38'0 0.0
2017-Jun-26 04:30N 37°57' E 023°38'0 0.0
2017-Jun-26 04:00N 37°57' E 023°38'1 1.4
2017-Jun-26 03:30N 37°56' E 023°37'510.9
2017-Jun-26 03:01N 37°51' E 023°40'1020.2
2017-Jun-26 02:31N 37°42' E 023°45'1020.4
2017-Jun-26 02:01N 37°32' E 023°49'1020.1
2017-Jun-26 01:31N 37°23' E 023°54'13 0.4
2017-Jun-24 19:31N 37°34' E 023°46'018.8
2017-Jun-24 19:30N 37°34' E 023°46'918.6
2017-Jun-24 19:00N 37°43' E 023°41'919.0
2017-Jun-24 18:31N 37°51' E 023°37'510.6
2017-Jun-24 18:00N 37°57' E 023°38'0 0.0
2017-Jun-24 17:28N 37°57' E 023°38'0 0.0
2017-Jun-24 16:58N 37°57' E 023°38'0 0.0
2017-Jun-24 16:28N 37°57' E 023°38'0 0.0
2017-Jun-24 15:58N 37°57' E 023°38'0 0.0
2017-Jun-24 15:28N 37°57' E 023°38'0 0.0
2017-Jun-24 14:58N 37°57' E 023°38'0 0.0
2017-Jun-24 13:58N 37°57' E 023°38'0 0.0
2017-Jun-24 13:28N 37°57' E 023°38'0 0.0
2017-Jun-24 12:58N 37°57' E 023°38'0 0.0
2017-Jun-24 12:28N 37°57' E 023°38'0 0.0
2017-Jun-24 11:55N 37°57' E 023°38'0 0.0
2017-Jun-24 11:28N 37°57' E 023°38'0 0.0
2017-Jun-24 10:58N 37°57' E 023°38'0 0.0
2017-Jun-24 10:28N 37°57' E 023°38'0 0.0
2017-Jun-24 09:55N 37°57' E 023°38'0 0.0
2017-Jun-24 09:28N 37°57' E 023°38'0 0.0
2017-Jun-24 08:58N 37°57' E 023°38'0 0.0
2017-Jun-24 08:28N 37°57' E 023°38'0 0.0
2017-Jun-24 07:58N 37°57' E 023°38'0 0.0
2017-Jun-24 07:28N 37°57' E 023°38'0 0.0
2017-Jun-24 06:58N 37°57' E 023°38'0 0.0
2017-Jun-24 06:28N 37°57' E 023°38'0 0.0
2017-Jun-24 05:58N 37°57' E 023°38'0 0.0
2017-Jun-24 05:28N 37°57' E 023°38'0 0.0
2017-Jun-24 04:58N 37°57' E 023°38'0 0.0
2017-Jun-24 04:28N 37°57' E 023°38'0 0.0
2017-Jun-24 03:58N 37°57' E 023°38'0 0.2
2017-Jun-24 03:31N 37°57' E 023°38'612.1
2017-Jun-24 03:00N 37°51' E 023°40'1019.3
2017-Jun-24 02:30N 37°42' E 023°45'1019.6
2017-Jun-24 02:00N 37°33' E 023°49'1019.8
2017-Jun-24 01:31N 37°23' E 023°53'2 0.1
2017-Jun-22 20:28N 37°23' E 023°51'919.8
2017-Jun-22 20:00N 37°32' E 023°47'1019.8
2017-Jun-22 19:30N 37°41' E 023°42'1019.6
2017-Jun-22 19:00N 37°50' E 023°37'713.3
2017-Jun-22 18:30N 37°57' E 023°38'0 0.0
2017-Jun-22 18:00N 37°57' E 023°38'0 0.0
2017-Jun-22 17:31N 37°57' E 023°38'0 0.0
2017-Jun-22 16:59N 37°57' E 023°38'0 0.0
2017-Jun-22 16:29N 37°57' E 023°38'0 0.0
2017-Jun-22 15:59N 37°57' E 023°38'0 0.0
2017-Jun-22 15:29N 37°57' E 023°38'0 0.0
2017-Jun-22 14:59N 37°57' E 023°38'0 0.0
2017-Jun-22 14:29N 37°57' E 023°38'0 0.0
2017-Jun-22 13:29N 37°57' E 023°38'0 0.0
2017-Jun-22 12:59N 37°57' E 023°38'0 0.0
2017-Jun-22 12:29N 37°57' E 023°38'0 0.0
2017-Jun-22 11:59N 37°57' E 023°38'0 0.0
2017-Jun-22 11:29N 37°57' E 023°38'0 0.0
2017-Jun-22 10:59N 37°57' E 023°38'0 0.0
2017-Jun-22 10:29N 37°57' E 023°38'0 0.0
2017-Jun-22 09:56N 37°57' E 023°38'0 0.0
2017-Jun-22 09:29N 37°57' E 023°38'0 0.0
2017-Jun-22 08:59N 37°57' E 023°38'0 0.0
2017-Jun-22 08:29N 37°57' E 023°38'0 0.0
2017-Jun-22 07:59N 37°57' E 023°38'0 0.0
2017-Jun-22 07:29N 37°57' E 023°38'0 0.0
2017-Jun-22 06:59N 37°57' E 023°38'0 0.0
2017-Jun-22 06:29N 37°57' E 023°38'0 0.0
2017-Jun-22 05:59N 37°57' E 023°38'0 0.0
2017-Jun-22 05:29N 37°57' E 023°38'0 0.0
2017-Jun-22 04:59N 37°57' E 023°38'0 0.0
2017-Jun-22 04:29N 37°57' E 023°38'0 0.0
2017-Jun-22 04:00N 37°57' E 023°38'0 0.3
2017-Jun-22 03:30N 37°56' E 023°38'612.1
2017-Jun-22 03:00N 37°51' E 023°40'1019.7
2017-Jun-22 02:30N 37°42' E 023°45'1019.6
2017-Jun-22 02:00N 37°32' E 023°49'1119.9
2017-Jun-22 01:29N 37°22' E 023°53'1224.0
2017-Jun-22 01:00N 37°12' E 024°00'80 3.3 1014.010.8 23.021.621.0
2017-Jun-21 01:00N 36°00' E 024°42'10319.5 310 / 121014.010.8 23.022.321.0
2017-Jun-20 19:42N 37°33' E 023°46'419.3
2017-Jun-20 19:30N 37°36' E 023°44'1019.3
2017-Jun-20 19:00N 37°45' E 023°39'918.9
2017-Jun-20 18:31N 37°54' E 023°37'3 5.1
2017-Jun-20 18:00N 37°57' E 023°38'0 0.0
2017-Jun-20 17:30N 37°57' E 023°38'0 0.0
2017-Jun-20 16:58N 37°57' E 023°38'0 0.0
2017-Jun-20 16:28N 37°57' E 023°38'0 0.0
2017-Jun-20 15:58N 37°57' E 023°38'0 0.0
2017-Jun-20 15:28N 37°57' E 023°38'0 0.0
2017-Jun-20 14:58N 37°57' E 023°38'0 0.0
2017-Jun-20 13:58N 37°57' E 023°38'0 0.0
2017-Jun-20 13:25N 37°57' E 023°38'0 0.0
2017-Jun-20 12:58N 37°57' E 023°38'0 0.0
2017-Jun-20 12:28N 37°57' E 023°38'0 0.0
2017-Jun-20 11:58N 37°57' E 023°38'0 0.0
2017-Jun-20 11:28N 37°57' E 023°38'0 0.0
2017-Jun-20 10:58N 37°57' E 023°38'0 0.0
2017-Jun-20 10:28N 37°57' E 023°38'0 0.0
2017-Jun-20 09:58N 37°57' E 023°38'0 0.0
2017-Jun-20 09:28N 37°57' E 023°38'0 0.0
2017-Jun-20 08:58N 37°57' E 023°38'0 0.0
2017-Jun-20 08:28N 37°57' E 023°38'0 0.0
2017-Jun-20 07:58N 37°57' E 023°38'0 0.0
2017-Jun-20 07:28N 37°57' E 023°38'0 0.0
2017-Jun-20 06:58N 37°57' E 023°38'0 0.0
2017-Jun-20 06:28N 37°57' E 023°38'0 0.0
2017-Jun-20 05:58N 37°57' E 023°38'0 0.0
2017-Jun-20 05:28N 37°57' E 023°38'0 0.0
2017-Jun-20 04:58N 37°57' E 023°38'0 0.0
2017-Jun-20 04:28N 37°57' E 023°38'0 0.0
2017-Jun-20 03:58N 37°57' E 023°38'0 0.6
2017-Jun-20 03:30N 37°56' E 023°38'714.4
2017-Jun-20 03:01N 37°49' E 023°39'1020.0
2017-Jun-20 02:30N 37°41' E 023°46'110 4.3
2017-Jun-19 01:00N 36°00' E 024°42'10419.2 360 / 121010.710.8 20.017.720.0
2017-Jun-18 19:36N 37°34' E 023°47'218.9
2017-Jun-18 19:30N 37°35' E 023°45'918.7
2017-Jun-18 19:00N 37°44' E 023°40'918.6
2017-Jun-18 18:30N 37°53' E 023°37'4 8.2
2017-Jun-18 18:00N 37°57' E 023°38'0 0.0
2017-Jun-18 17:30N 37°57' E 023°38'0 0.0
2017-Jun-18 17:00N 37°57' E 023°38'0 0.0
2017-Jun-18 16:30N 37°57' E 023°38'0 0.0
2017-Jun-18 16:00N 37°57' E 023°38'0 0.0
2017-Jun-18 15:30N 37°57' E 023°38'0 0.0
2017-Jun-18 15:00N 37°57' E 023°38'0 0.0
2017-Jun-18 14:00N 37°57' E 023°38'0 0.0
2017-Jun-18 13:30N 37°57' E 023°38'0 0.0
2017-Jun-18 13:00N 37°57' E 023°38'0 0.0
2017-Jun-18 12:30N 37°57' E 023°38'0 0.0
2017-Jun-18 12:00N 37°57' E 023°38'0 0.0
2017-Jun-18 11:30N 37°57' E 023°38'0 0.0
2017-Jun-18 11:00N 37°57' E 023°38'0 0.0
2017-Jun-18 10:30N 37°57' E 023°38'0 0.0
2017-Jun-18 10:00N 37°57' E 023°38'0 0.0
2017-Jun-18 09:30N 37°57' E 023°38'0 0.0
2017-Jun-18 08:58N 37°57' E 023°38'0 0.0
2017-Jun-18 08:28N 37°57' E 023°38'0 0.0
2017-Jun-18 07:58N 37°57' E 023°38'0 0.0
2017-Jun-18 07:28N 37°57' E 023°38'0 0.0
2017-Jun-18 06:58N 37°57' E 023°38'0 0.0
2017-Jun-18 06:28N 37°57' E 023°38'0 0.0
2017-Jun-18 05:58N 37°57' E 023°38'0 0.0
2017-Jun-18 05:28N 37°57' E 023°38'0 0.0
2017-Jun-18 04:55N 37°57' E 023°38'0 0.0
2017-Jun-18 04:28N 37°57' E 023°38'1 2.6
2017-Jun-18 04:01N 37°56' E 023°37'1020.1
2017-Jun-18 03:31N 37°47' E 023°42'1223.4
2017-Jun-18 03:01N 37°36' E 023°47'2 0.1
2017-Jun-16 19:36N 37°35' E 023°45'219.1
2017-Jun-16 19:30N 37°37' E 023°44'1019.5
2017-Jun-16 19:01N 37°45' E 023°39'  
Track history (hours):
 
Tides and Currents Weather Stations Pressure Air Temp Water Temp Dewpoint Dewpoint Depression Visibility Wind Speed Wind Dir Waves Ship Positions

Knossos Palace

Last reported at 2017-Jun-26 19:00 UTC. Time now 2017-Jun-26 19:04 UTC.
Position N 37°48' E 023°38'.

Length 214 m; beam 26.4 m; draft 7.3 m.

Type: Ship. MMSI: 237641000.

Date/timePositionNaut miles runAvg speedWind from/ knotsBaromVisibWave heightAir tempDewpointWater temp
2017-Jun-26 19:00N 37°48' E 023°38'816.9
2017-Jun-26 18:30N 37°56' E 023°37'1 1.9
2017-Jun-26 18:00N 37°57' E 023°38'0 0.0
2017-Jun-26 17:30N 37°57' E 023°38'0 0.0
2017-Jun-26 16:59N 37°57' E 023°38'0 0.0
2017-Jun-26 16:29N 37°57' E 023°38'0 0.0
2017-Jun-26 15:59N 37°57' E 023°38'0 0.0
2017-Jun-26 15:26N 37°57' E 023°38'0 0.0
2017-Jun-26 14:59N 37°57' E 023°38'0 0.0
2017-Jun-26 13:59N 37°57' E 023°38'0 0.0
2017-Jun-26 13:29N 37°57' E 023°38'0 0.0
2017-Jun-26 12:53N 37°57' E 023°38'0 0.0
2017-Jun-26 12:26N 37°57' E 023°38'0 0.0
2017-Jun-26 11:59N 37°57' E 023°38'0 0.0
2017-Jun-26 11:26N 37°57' E 023°38'0 0.0
2017-Jun-26 10:56N 37°57' E 023°38'0 0.0
2017-Jun-26 10:29N 37°57' E 023°38'0 0.0
2017-Jun-26 09:56N 37°57' E 023°38'0 0.0
2017-Jun-26 09:29N 37°57' E 023°38'0 0.0
2017-Jun-26 08:59N 37°57' E 023°38'0 0.0
2017-Jun-26 08:29N 37°57' E 023°38'0 0.0
2017-Jun-26 07:59N 37°57' E 023°38'0 0.0
2017-Jun-26 07:29N 37°57' E 023°38'0 0.0
2017-Jun-26 06:59N 37°57' E 023°38'0 0.0
2017-Jun-26 05:58N 37°57' E 023°38'0 0.0
2017-Jun-26 05:30N 37°57' E 023°38'0 0.0
2017-Jun-26 05:00N 37°57' E 023°38'0 0.0
2017-Jun-26 04:30N 37°57' E 023°38'0 0.0
2017-Jun-26 04:00N 37°57' E 023°38'1 1.4
2017-Jun-26 03:30N 37°56' E 023°37'510.9
2017-Jun-26 03:01N 37°51' E 023°40'1020.2
2017-Jun-26 02:31N 37°42' E 023°45'1020.4
2017-Jun-26 02:01N 37°32' E 023°49'1020.1
2017-Jun-26 01:31N 37°23' E 023°54'13 0.4
2017-Jun-24 19:31N 37°34' E 023°46'018.8
2017-Jun-24 19:30N 37°34' E 023°46'918.6
2017-Jun-24 19:00N 37°43' E 023°41'919.0
2017-Jun-24 18:31N 37°51' E 023°37'510.6
2017-Jun-24 18:00N 37°57' E 023°38'0 0.0
2017-Jun-24 17:28N 37°57' E 023°38'0 0.0
2017-Jun-24 16:58N 37°57' E 023°38'0 0.0
2017-Jun-24 16:28N 37°57' E 023°38'0 0.0
2017-Jun-24 15:58N 37°57' E 023°38'0 0.0
2017-Jun-24 15:28N 37°57' E 023°38'0 0.0
2017-Jun-24 14:58N 37°57' E 023°38'0 0.0
2017-Jun-24 13:58N 37°57' E 023°38'0 0.0
2017-Jun-24 13:28N 37°57' E 023°38'0 0.0
2017-Jun-24 12:58N 37°57' E 023°38'0 0.0
2017-Jun-24 12:28N 37°57' E 023°38'0 0.0
2017-Jun-24 11:55N 37°57' E 023°38'0 0.0
2017-Jun-24 11:28N 37°57' E 023°38'0 0.0
2017-Jun-24 10:58N 37°57' E 023°38'0 0.0
2017-Jun-24 10:28N 37°57' E 023°38'0 0.0
2017-Jun-24 09:55N 37°57' E 023°38'0 0.0
2017-Jun-24 09:28N 37°57' E 023°38'0 0.0
2017-Jun-24 08:58N 37°57' E 023°38'0 0.0
2017-Jun-24 08:28N 37°57' E 023°38'0 0.0
2017-Jun-24 07:58N 37°57' E 023°38'0 0.0
2017-Jun-24 07:28N 37°57' E 023°38'0 0.0
2017-Jun-24 06:58N 37°57' E 023°38'0 0.0
2017-Jun-24 06:28N 37°57' E 023°38'0 0.0
2017-Jun-24 05:58N 37°57' E 023°38'0 0.0
2017-Jun-24 05:28N 37°57' E 023°38'0 0.0
2017-Jun-24 04:58N 37°57' E 023°38'0 0.0
2017-Jun-24 04:28N 37°57' E 023°38'0 0.0
2017-Jun-24 03:58N 37°57' E 023°38'0 0.2
2017-Jun-24 03:31N 37°57' E 023°38'612.1
2017-Jun-24 03:00N 37°51' E 023°40'1019.3
2017-Jun-24 02:30N 37°42' E 023°45'1019.6
2017-Jun-24 02:00N 37°33' E 023°49'1019.8
2017-Jun-24 01:31N 37°23' E 023°53'2 0.1
2017-Jun-22 20:28N 37°23' E 023°51'919.8
2017-Jun-22 20:00N 37°32' E 023°47'1019.8
2017-Jun-22 19:30N 37°41' E 023°42'1019.6
2017-Jun-22 19:00N 37°50' E 023°37'713.3
2017-Jun-22 18:30N 37°57' E 023°38'0 0.0
2017-Jun-22 18:00N 37°57' E 023°38'0 0.0
2017-Jun-22 17:31N 37°57' E 023°38'0 0.0
2017-Jun-22 16:59N 37°57' E 023°38'0 0.0
2017-Jun-22 16:29N 37°57' E 023°38'0 0.0
2017-Jun-22 15:59N 37°57' E 023°38'0 0.0
2017-Jun-22 15:29N 37°57' E 023°38'0 0.0
2017-Jun-22 14:59N 37°57' E 023°38'0 0.0
2017-Jun-22 14:29N 37°57' E 023°38'0 0.0
2017-Jun-22 13:29N 37°57' E 023°38'0 0.0
2017-Jun-22 12:59N 37°57' E 023°38'0 0.0
2017-Jun-22 12:29N 37°57' E 023°38'0 0.0
2017-Jun-22 11:59N 37°57' E 023°38'0 0.0
2017-Jun-22 11:29N 37°57' E 023°38'0 0.0
2017-Jun-22 10:59N 37°57' E 023°38'0 0.0
2017-Jun-22 10:29N 37°57' E 023°38'0 0.0
2017-Jun-22 09:56N 37°57' E 023°38'0 0.0
2017-Jun-22 09:29N 37°57' E 023°38'0 0.0
2017-Jun-22 08:59N 37°57' E 023°38'0 0.0
2017-Jun-22 08:29N 37°57' E 023°38'0 0.0
2017-Jun-22 07:59N 37°57' E 023°38'0 0.0
2017-Jun-22 07:29N 37°57' E 023°38'0 0.0
2017-Jun-22 06:59N 37°57' E 023°38'0 0.0
2017-Jun-22 06:29N 37°57' E 023°38'0 0.0
2017-Jun-22 05:59N 37°57' E 023°38'0 0.0
2017-Jun-22 05:29N 37°57' E 023°38'0 0.0
2017-Jun-22 04:59N 37°57' E 023°38'0 0.0
2017-Jun-22 04:29N 37°57' E 023°38'0 0.0
2017-Jun-22 04:00N 37°57' E 023°38'0 0.3
2017-Jun-22 03:30N 37°56' E 023°38'612.1
2017-Jun-22 03:00N 37°51' E 023°40'1019.7
2017-Jun-22 02:30N 37°42' E 023°45'1019.6
2017-Jun-22 02:00N 37°32' E 023°49'1119.9
2017-Jun-22 01:29N 37°22' E 023°53'1224.0
2017-Jun-22 01:00N 37°12' E 024°00'80 3.3 1014.010.8 23.021.621.0
2017-Jun-21 01:00N 36°00' E 024°42'10319.5 310 / 121014.010.8 23.022.321.0
2017-Jun-20 19:42N 37°33' E 023°46'419.3
2017-Jun-20 19:30N 37°36' E 023°44'1019.3
2017-Jun-20 19:00N 37°45' E 023°39'918.9
2017-Jun-20 18:31N 37°54' E 023°37'3 5.1
2017-Jun-20 18:00N 37°57' E 023°38'0 0.0
2017-Jun-20 17:30N 37°57' E 023°38'0 0.0
2017-Jun-20 16:58N 37°57' E 023°38'0 0.0
2017-Jun-20 16:28N 37°57' E 023°38'0 0.0
2017-Jun-20 15:58N 37°57' E 023°38'0 0.0
2017-Jun-20 15:28N 37°57' E 023°38'0 0.0
2017-Jun-20 14:58N 37°57' E 023°38'0 0.0
2017-Jun-20 13:58N 37°57' E 023°38'0 0.0
2017-Jun-20 13:25N 37°57' E 023°38'0 0.0
2017-Jun-20 12:58N 37°57' E 023°38'0 0.0
2017-Jun-20 12:28N 37°57' E 023°38'0 0.0
2017-Jun-20 11:58N 37°57' E 023°38'0 0.0
2017-Jun-20 11:28N 37°57' E 023°38'0 0.0
2017-Jun-20 10:58N 37°57' E 023°38'0 0.0
2017-Jun-20 10:28N 37°57' E 023°38'0 0.0
2017-Jun-20 09:58N 37°57' E 023°38'0 0.0
2017-Jun-20 09:28N 37°57' E 023°38'0 0.0
2017-Jun-20 08:58N 37°57' E 023°38'0 0.0
2017-Jun-20 08:28N 37°57' E 023°38'0 0.0
2017-Jun-20 07:58N 37°57' E 023°38'0 0.0
2017-Jun-20 07:28N 37°57' E 023°38'0 0.0
2017-Jun-20 06:58N 37°57' E 023°38'0 0.0
2017-Jun-20 06:28N 37°57' E 023°38'0 0.0
2017-Jun-20 05:58N 37°57' E 023°38'0 0.0
2017-Jun-20 05:28N 37°57' E 023°38'0 0.0
2017-Jun-20 04:58N 37°57' E 023°38'0 0.0
2017-Jun-20 04:28N 37°57' E 023°38'0 0.0
2017-Jun-20 03:58N 37°57' E 023°38'0 0.6
2017-Jun-20 03:30N 37°56' E 023°38'714.4
2017-Jun-20 03:01N 37°49' E 023°39'1020.0
2017-Jun-20 02:30N 37°41' E 023°46'110 4.3
2017-Jun-19 01:00N 36°00' E 024°42'10419.2 360 / 121010.710.8 20.017.720.0
2017-Jun-18 19:36N 37°34' E 023°47'218.9
2017-Jun-18 19:30N 37°35' E 023°45'918.7
2017-Jun-18 19:00N 37°44' E 023°40'918.6
2017-Jun-18 18:30N 37°53' E 023°37'4 8.2
2017-Jun-18 18:00N 37°57' E 023°38'0 0.0
2017-Jun-18 17:30N 37°57' E 023°38'0 0.0
2017-Jun-18 17:00N 37°57' E 023°38'0 0.0
2017-Jun-18 16:30N 37°57' E 023°38'0 0.0
2017-Jun-18 16:00N 37°57' E 023°38'0 0.0
2017-Jun-18 15:30N 37°57' E 023°38'0 0.0
2017-Jun-18 15:00N 37°57' E 023°38'0 0.0
2017-Jun-18 14:00N 37°57' E 023°38'0 0.0
2017-Jun-18 13:30N 37°57' E 023°38'0 0.0
2017-Jun-18 13:00N 37°57' E 023°38'0 0.0
2017-Jun-18 12:30N 37°57' E 023°38'0 0.0
2017-Jun-18 12:00N 37°57' E 023°38'0 0.0
2017-Jun-18 11:30N 37°57' E 023°38'0 0.0
2017-Jun-18 11:00N 37°57' E 023°38'0 0.0
2017-Jun-18 10:30N 37°57' E 023°38'0 0.0
2017-Jun-18 10:00N 37°57' E 023°38'0 0.0
2017-Jun-18 09:30N 37°57' E 023°38'0 0.0
2017-Jun-18 08:58N 37°57' E 023°38'0 0.0
2017-Jun-18 08:28N 37°57' E 023°38'0 0.0
2017-Jun-18 07:58N 37°57' E 023°38'0 0.0
2017-Jun-18 07:28N 37°57' E 023°38'0 0.0
2017-Jun-18 06:58N 37°57' E 023°38'0 0.0
2017-Jun-18 06:28N 37°57' E 023°38'0 0.0
2017-Jun-18 05:58N 37°57' E 023°38'0 0.0
2017-Jun-18 05:28N 37°57' E 023°38'0 0.0
2017-Jun-18 04:55N 37°57' E 023°38'0 0.0
2017-Jun-18 04:28N 37°57' E 023°38'1 2.6
2017-Jun-18 04:01N 37°56' E 023°37'1020.1
2017-Jun-18 03:31N 37°47' E 023°42'1223.4
2017-Jun-18 03:01N 37°36' E 023°47'2 0.1
2017-Jun-16 19:36N 37°35' E 023°45'219.1
2017-Jun-16 19:30N 37°37' E 023°44'1019.5
2017-Jun-16 19:01N 37°45' E 023°39'  

Dump ship's entire track history